Time;durP1;ratioP1;P1;durP2;ratioP2;P2;SDS_P1;SDS_P2;PMS_P1;PMS_P2;Temp;Humidity;BMP_temperature;BMP_pressure;BME280_temperature;BME280_humidity;BME280_pressure;Samples;Min_cycle;Max_cycle;Signal;HPM_P1;HPM_P2
2023/07/07 00:00:54;;;;;;;1.98;1.77;;;17.20;90.70;;;;;;5071881;28;20071;-74
2023/07/07 00:03:20;;;;;;;1.60;1.50;;;17.20;90.90;;;;;;5072447;28;20050;-75
2023/07/07 00:05:46;;;;;;;1.67;1.58;;;17.20;91.00;;;;;;5087535;28;20100;-74
2023/07/07 00:08:11;;;;;;;1.80;1.70;;;17.10;91.10;;;;;;5070837;28;20113;-76
2023/07/07 00:10:42;;;;;;;1.52;1.40;;;17.10;91.20;;;;;;5071900;28;20107;-74
2023/07/07 00:13:12;;;;;;;1.60;1.50;;;17.10;91.40;;;;;;5072312;28;20021;-76
2023/07/07 00:15:43;;;;;;;1.45;1.35;;;17.00;91.50;;;;;;5072350;28;20444;-74
2023/07/07 00:18:09;;;;;;;2.03;1.70;;;17.00;91.60;;;;;;5072517;28;20025;-75
2023/07/07 00:20:35;;;;;;;1.85;1.60;;;16.90;91.70;;;;;;5074812;28;20393;-74
2023/07/07 00:23:00;;;;;;;1.55;1.45;;;16.90;91.90;;;;;;5075871;28;20029;-75
2023/07/07 00:25:26;;;;;;;1.90;1.60;;;16.90;92.30;;;;;;5078455;28;20416;-75
2023/07/07 00:27:52;;;;;;;1.80;1.70;;;16.90;92.50;;;;;;5076166;28;20017;-75
2023/07/07 00:30:17;;;;;;;1.70;1.60;;;16.80;92.70;;;;;;5074560;28;20107;-75
2023/07/07 00:32:43;;;;;;;1.58;1.48;;;16.80;92.80;;;;;;5075637;28;20029;-75
2023/07/07 00:35:09;;;;;;;1.90;1.80;;;16.70;92.80;;;;;;5076062;28;20051;-74
2023/07/07 00:37:35;;;;;;;1.70;1.60;;;16.70;93.00;;;;;;5059890;28;20028;-75
2023/07/07 00:40:03;;;;;;;2.83;2.13;;;16.70;93.00;;;;;;5062675;28;20481;-75
2023/07/07 00:42:28;;;;;;;1.95;1.80;;;16.70;93.10;;;;;;5078709;28;20037;-75
2023/07/07 00:45:12;;;;;;;1.67;1.58;;;16.70;93.10;;;;;;5075415;28;20044;-76
2023/07/07 00:47:53;;;;;;;2.45;2.00;;;16.60;93.40;;;;;;5075656;28;20764;-75
2023/07/07 00:50:21;;;;;;;2.63;2.25;;;16.60;93.70;;;;;;5075219;28;20025;-74
2023/07/07 00:52:48;;;;;;;1.90;1.77;;;16.50;93.40;;;;;;5078552;28;20098;-74
2023/07/07 00:55:19;;;;;;;1.92;1.75;;;16.50;93.60;;;;;;5076434;28;20146;-74
2023/07/07 00:57:45;;;;;;;3.20;2.13;;;16.40;93.70;;;;;;5075233;28;20081;-74
2023/07/07 01:00:12;;;;;;;2.45;2.25;;;16.40;93.90;;;;;;5075182;28;20447;-74
2023/07/07 01:02:38;;;;;;;2.83;2.47;;;16.30;94.00;;;;;;5075471;28;20024;-74
2023/07/07 01:05:05;;;;;;;2.38;2.17;;;16.30;94.10;;;;;;5075780;28;20016;-75
2023/07/07 01:07:36;;;;;;;2.05;1.83;;;16.30;94.20;;;;;;5059474;28;20044;-74
2023/07/07 01:10:03;;;;;;;1.90;1.80;;;16.30;94.20;;;;;;5055518;28;20378;-75
2023/07/07 01:12:28;;;;;;;1.90;1.77;;;16.20;94.30;;;;;;5071696;28;20111;-75
2023/07/07 01:14:54;;;;;;;1.63;1.38;;;16.20;94.40;;;;;;5074238;28;20162;-75
2023/07/07 01:17:44;;;;;;;2.25;1.80;;;16.20;94.40;;;;;;5076471;28;20059;-74
2023/07/07 01:20:17;;;;;;;2.17;1.98;;;16.20;94.40;;;;;;5074604;28;20173;-75
2023/07/07 01:22:56;;;;;;;1.52;1.42;;;16.20;94.40;;;;;;5074117;28;20051;-75
2023/07/07 01:25:55;;;;;;;1.65;1.55;;;16.20;94.40;;;;;;5076873;28;20028;-74
2023/07/07 01:28:31;;;;;;;1.70;1.60;;;16.20;94.40;;;;;;5074615;28;20385;-75
2023/07/07 01:31:17;;;;;;;1.60;1.50;;;16.20;94.50;;;;;;5073924;28;20025;-75
2023/07/07 01:33:45;;;;;;;1.30;1.20;;;16.20;94.40;;;;;;5074624;28;20024;-74
2023/07/07 01:36:11;;;;;;;1.48;1.33;;;16.10;94.40;;;;;;5070453;28;20029;-74
2023/07/07 01:38:38;;;;;;;1.60;1.50;;;16.10;94.60;;;;;;5054283;28;20033;-74
2023/07/07 01:41:22;;;;;;;1.60;1.50;;;16.00;94.80;;;;;;5067750;28;20028;-75
2023/07/07 01:44:01;;;;;;;2.28;2.08;;;16.00;94.90;;;;;;5073757;28;20033;-75
2023/07/07 01:46:29;;;;;;;1.63;1.50;;;16.00;95.00;;;;;;5074481;28;20025;-74
2023/07/07 01:49:09;;;;;;;2.00;1.85;;;16.00;95.10;;;;;;5074209;28;20021;-75
2023/07/07 01:51:52;;;;;;;1.65;1.55;;;15.90;95.20;;;;;;5075615;28;20084;-73
2023/07/07 01:54:18;;;;;;;1.65;1.42;;;15.90;95.30;;;;;;5052778;28;20029;-75
2023/07/07 01:56:46;;;;;;;1.60;1.50;;;15.90;95.20;;;;;;5054152;28;20389;-75
2023/07/07 01:59:13;;;;;;;1.65;1.55;;;15.80;95.20;;;;;;5056992;28;20039;-74
2023/07/07 02:01:39;;;;;;;1.55;1.38;;;15.80;95.20;;;;;;5067106;28;20032;-75
2023/07/07 02:04:05;;;;;;;1.83;1.48;;;15.70;95.30;;;;;;5073795;28;20077;-74
2023/07/07 02:06:30;;;;;;;2.00;1.80;;;15.70;95.50;;;;;;5076271;28;20100;-74
2023/07/07 02:08:56;;;;;;;1.83;1.58;;;15.70;95.60;;;;;;5074832;28;20377;-75
2023/07/07 02:11:22;;;;;;;2.03;1.83;;;15.70;95.70;;;;;;5073511;28;20025;-75
2023/07/07 02:13:47;;;;;;;2.20;1.90;;;15.60;95.80;;;;;;5074703;28;20054;-74
2023/07/07 02:16:13;;;;;;;2.08;1.52;;;15.60;95.90;;;;;;5073134;28;20074;-75
2023/07/07 02:18:41;;;;;;;1.83;1.67;;;15.60;96.10;;;;;;5073879;28;20031;-75
2023/07/07 02:21:07;;;;;;;1.98;1.80;;;15.60;96.10;;;;;;5072878;28;20115;-74
2023/07/07 02:23:33;;;;;;;2.17;1.90;;;15.50;96.10;;;;;;5075808;28;20040;-74
2023/07/07 02:25:59;;;;;;;2.38;1.90;;;15.50;96.20;;;;;;5072964;28;20059;-75
2023/07/07 02:28:24;;;;;;;2.30;1.90;;;15.50;96.70;;;;;;5073385;28;20085;-75
2023/07/07 02:30:52;;;;;;;1.70;1.52;;;15.50;96.50;;;;;;5072251;28;20036;-75
2023/07/07 02:33:18;;;;;;;1.83;1.67;;;15.50;96.60;;;;;;5072978;28;20162;-75
2023/07/07 02:35:48;;;;;;;1.90;1.70;;;15.40;96.60;;;;;;5071606;28;20112;-74
2023/07/07 02:38:14;;;;;;;2.53;2.08;;;15.50;96.70;;;;;;5055973;28;20126;-75
2023/07/07 02:40:41;;;;;;;1.95;1.75;;;15.40;96.90;;;;;;5053257;28;20025;-74
2023/07/07 02:43:07;;;;;;;2.15;1.85;;;15.40;96.70;;;;;;5065469;28;20033;-74
2023/07/07 02:45:33;;;;;;;1.77;1.67;;;15.30;96.90;;;;;;5075098;28;20021;-74
2023/07/07 02:47:58;;;;;;;1.83;1.70;;;15.30;97.00;;;;;;5073260;28;20104;-75
2023/07/07 02:50:24;;;;;;;1.92;1.70;;;15.30;97.10;;;;;;5073500;28;20048;-74
2023/07/07 02:52:50;;;;;;;2.72;2.13;;;15.20;97.30;;;;;;5077306;28;20032;-74
2023/07/07 02:55:15;;;;;;;1.95;1.75;;;15.20;97.40;;;;;;5073384;28;20035;-74
2023/07/07 02:57:41;;;;;;;2.00;1.70;;;15.20;97.40;;;;;;5073850;28;20029;-75
2023/07/07 03:00:09;;;;;;;1.55;1.45;;;15.20;97.40;;;;;;5074681;28;20576;-74
2023/07/07 03:02:34;;;;;;;1.80;1.60;;;15.20;97.60;;;;;;5073513;28;20047;-74
2023/07/07 03:05:00;;;;;;;1.80;1.70;;;15.20;97.60;;;;;;5072994;28;20017;-74
2023/07/07 03:07:25;;;;;;;2.03;1.80;;;15.20;97.70;;;;;;5058013;28;20099;-74
2023/07/07 03:09:51;;;;;;;1.65;1.55;;;15.20;97.70;;;;;;5054621;28;20029;-74
2023/07/07 03:12:17;;;;;;;1.83;1.63;;;15.20;97.50;;;;;;5052935;28;20108;-74
2023/07/07 03:14:42;;;;;;;1.30;1.20;;;15.20;97.50;;;;;;5069671;28;20116;-74
2023/07/07 03:17:09;;;;;;;1.60;1.50;;;15.20;97.50;;;;;;5072730;28;20024;-75
2023/07/07 03:19:35;;;;;;;2.05;1.73;;;15.20;97.50;;;;;;5072738;28;20029;-75
2023/07/07 03:22:00;;;;;;;1.50;1.40;;;15.10;97.50;;;;;;5072635;28;20040;-74
2023/07/07 03:24:26;;;;;;;1.95;1.75;;;15.10;97.50;;;;;;5071982;28;20477;-75
2023/07/07 03:26:52;;;;;;;1.58;1.48;;;15.10;97.60;;;;;;5075129;28;20021;-75
2023/07/07 03:29:17;;;;;;;2.28;1.83;;;15.00;97.70;;;;;;5072327;28;20025;-74
2023/07/07 03:31:43;;;;;;;1.63;1.50;;;15.10;97.80;;;;;;5072776;28;20032;-75
2023/07/07 03:34:09;;;;;;;1.50;1.40;;;15.10;97.80;;;;;;5070445;28;20053;-75
2023/07/07 03:36:35;;;;;;;2.03;1.83;;;15.10;97.70;;;;;;5064404;28;20489;-74
2023/07/07 03:39:02;;;;;;;1.67;1.52;;;15.10;97.70;;;;;;5072474;28;20107;-75
2023/07/07 03:41:29;;;;;;;2.20;1.98;;;15.10;97.60;;;;;;5073849;28;20174;-75
2023/07/07 03:43:55;;;;;;;2.70;1.95;;;15.10;97.70;;;;;;5072188;28;20119;-74
2023/07/07 03:46:24;;;;;;;2.53;2.00;;;15.20;97.70;;;;;;5072627;28;20056;-74
2023/07/07 03:48:53;;;;;;;2.05;1.88;;;15.20;97.70;;;;;;5073092;28;20066;-75
2023/07/07 03:51:19;;;;;;;2.78;2.25;;;15.20;97.70;;;;;;5072728;28;20044;-75
2023/07/07 03:53:47;;;;;;;2.00;1.80;;;15.20;97.70;;;;;;5072871;28;20030;-73
2023/07/07 03:56:13;;;;;;;2.35;1.95;;;15.20;97.80;;;;;;5072963;28;20048;-75
2023/07/07 03:58:39;;;;;;;2.10;1.90;;;15.20;97.80;;;;;;5075824;28;20449;-74
2023/07/07 04:01:07;;;;;;;1.60;1.50;;;15.20;97.80;;;;;;5078305;28;20037;-74
2023/07/07 04:03:33;;;;;;;2.08;1.80;;;15.20;97.90;;;;;;5075141;28;20508;-74
2023/07/07 04:06:00;;;;;;;2.50;2.15;;;15.20;97.90;;;;;;5081111;28;20067;-74
2023/07/07 04:08:26;;;;;;;2.30;1.90;;;15.30;97.70;;;;;;5081814;28;20024;-74
2023/07/07 04:11:00;;;;;;;1.83;1.73;;;15.30;97.50;;;;;;5082257;28;20048;-74
2023/07/07 04:13:31;;;;;;;1.80;1.70;;;15.20;97.50;;;;;;5080619;28;20102;-74
2023/07/07 04:16:01;;;;;;;1.98;1.60;;;15.30;97.50;;;;;;5080338;28;20040;-74
2023/07/07 04:18:28;;;;;;;2.03;1.83;;;15.30;97.30;;;;;;5080735;28;20044;-74
2023/07/07 04:20:53;;;;;;;2.13;1.88;;;15.30;97.30;;;;;;5080449;28;20393;-76
2023/07/07 04:23:19;;;;;;;1.70;1.60;;;15.30;97.20;;;;;;5078770;28;20027;-74
2023/07/07 04:25:45;;;;;;;2.03;1.80;;;15.40;97.20;;;;;;5080702;28;20040;-73
2023/07/07 04:28:11;;;;;;;1.85;1.70;;;15.40;97.10;;;;;;5081138;28;20110;-74
2023/07/07 04:30:36;;;;;;;1.80;1.70;;;15.50;97.10;;;;;;5082218;28;20032;-73
2023/07/07 04:33:03;;;;;;;1.65;1.55;;;15.50;97.10;;;;;;5080813;28;20033;-76
2023/07/07 04:35:28;;;;;;;1.42;1.33;;;15.60;97.00;;;;;;5080200;28;20025;-76
2023/07/07 04:37:54;;;;;;;1.40;1.30;;;15.60;96.90;;;;;;5079156;28;20024;-75
2023/07/07 04:40:20;;;;;;;1.55;1.20;;;15.60;96.70;;;;;;5075461;28;20134;-75
2023/07/07 04:42:47;;;;;;;1.77;1.60;;;15.70;96.60;;;;;;5075374;28;20016;-75
2023/07/07 04:45:13;;;;;;;1.67;1.58;;;15.80;96.40;;;;;;5076793;28;20039;-74
2023/07/07 04:47:38;;;;;;;1.85;1.58;;;15.80;96.30;;;;;;5074078;28;20016;-74
2023/07/07 04:50:04;;;;;;;1.65;1.55;;;15.90;96.10;;;;;;5073689;28;20048;-75
2023/07/07 04:52:30;;;;;;;1.83;1.73;;;16.00;95.90;;;;;;5074565;28;20048;-77
2023/07/07 04:54:56;;;;;;;1.30;1.20;;;16.10;95.70;;;;;;5073991;28;20039;-74
2023/07/07 04:57:21;;;;;;;1.70;1.60;;;16.10;95.40;;;;;;5071771;28;20032;-73
2023/07/07 04:59:47;;;;;;;2.45;2.17;;;16.20;95.00;;;;;;5073885;28;20041;-74
2023/07/07 05:02:12;;;;;;;2.55;1.88;;;16.30;94.90;;;;;;5071702;28;20579;-74
2023/07/07 05:04:38;;;;;;;1.90;1.70;;;16.40;94.80;;;;;;5070742;28;20066;-74
2023/07/07 05:07:04;;;;;;;1.88;1.75;;;16.40;94.50;;;;;;5061416;28;20029;-74
2023/07/07 05:09:30;;;;;;;2.20;2.00;;;16.60;94.10;;;;;;5079790;28;20009;-74
2023/07/07 05:11:56;;;;;;;2.38;1.83;;;;;;;;;;5076082;28;20020;-74
2023/07/07 05:14:21;;;;;;;1.88;1.67;;;17.60;93.80;;;;;;5077437;28;20028;-75
2023/07/07 05:16:47;;;;;;;2.15;1.90;;;19.70;91.40;;;;;;5077661;28;20549;-74
2023/07/07 05:19:13;;;;;;;1.98;1.88;;;22.20;85.70;;;;;;5077368;28;20060;-75
2023/07/07 05:21:38;;;;;;;1.45;1.35;;;24.50;75.00;;;;;;5076798;28;20207;-73
2023/07/07 05:24:05;;;;;;;1.40;1.30;;;;;;;;;;5078276;28;20028;-75
2023/07/07 05:26:31;;;;;;;1.60;1.50;;;;;;;;;;5076940;28;20040;-74
2023/07/07 05:28:58;;;;;;;1.27;1.27;;;;;;;;;;5074344;28;20020;-75
2023/07/07 05:31:25;;;;;;;1.13;1.08;;;;;;;;;;5074479;28;20027;-74
2023/07/07 05:33:51;;;;;;;1.40;1.30;;;;;;;;;;5075612;28;20016;-74
2023/07/07 05:36:17;;;;;;;1.15;1.15;;;;;;;;;;5066125;28;20027;-75
2023/07/07 05:38:43;;;;;;;1.20;1.20;;;;;;;;;;5078003;28;20024;-73
2023/07/07 05:41:10;;;;;;;1.20;1.20;;;;;;;;;;5073546;28;20029;-75
2023/07/07 05:43:36;;;;;;;1.33;1.30;;;;;;;;;;5073243;28;20434;-76
2023/07/07 05:46:03;;;;;;;1.65;1.58;;;;;;;;;;5076982;28;20032;-74
2023/07/07 05:48:30;;;;;;;1.15;1.15;;;;;;;;;;5074824;28;20082;-74
2023/07/07 05:50:57;;;;;;;1.00;1.00;;;;;;;;;;5074072;28;20036;-74
2023/07/07 05:53:23;;;;;;;1.38;1.38;;;;;;;;;;5073467;28;20021;-75
2023/07/07 05:55:50;;;;;;;1.00;1.00;;;;;;;;;;5074028;28;20019;-74
2023/07/07 05:58:17;;;;;;;1.33;1.27;;;;;;;;;;5072451;28;20386;-74
2023/07/07 06:00:43;;;;;;;1.17;1.17;;;;;;;;;;5074177;28;20104;-75
2023/07/07 06:03:09;;;;;;;1.40;1.30;;;;;;;;;;5073358;28;20501;-74
2023/07/07 06:05:35;;;;;;;1.60;1.50;;;;;;;;;;5088416;28;20031;-74
2023/07/07 06:08:04;;;;;;;1.40;1.40;;;;;;;;;;5073593;28;20025;-74
2023/07/07 06:10:30;;;;;;;1.60;1.50;;;;;;;;;;5073615;28;20021;-74
2023/07/07 06:12:56;;;;;;;2.00;1.90;;;;;;;;;;5072612;28;20040;-74
2023/07/07 06:15:22;;;;;;;1.60;1.50;;;;;;;;;;5072434;28;20024;-74
2023/07/07 06:17:50;;;;;;;1.45;1.35;;;;;;;;;;5069018;28;20029;-75
2023/07/07 06:20:16;;;;;;;1.45;1.45;;;;;;;;;;5071871;28;20032;-74
2023/07/07 06:22:43;;;;;;;1.20;1.20;;;;;;;;;;5073429;28;20112;-74
2023/07/07 06:25:09;;;;;;;1.65;1.58;;;;;;;;;;5072994;28;20397;-73
2023/07/07 06:27:36;;;;;;;1.17;1.08;;;;;;;;;;5072689;28;20027;-74
2023/07/07 06:30:02;;;;;;;1.23;1.23;;;;;;;;;;5073162;28;20024;-74
2023/07/07 06:32:28;;;;;;;1.00;1.00;;;;;;;;;;5061243;28;20028;-74
2023/07/07 06:34:54;;;;;;;1.25;1.25;;;;;;;;;;5069166;28;20496;-74
2023/07/07 06:37:21;;;;;;;0.98;0.98;;;;;;;;;;5058595;28;20025;-74
2023/07/07 06:39:47;;;;;;;1.20;1.20;;;;;;;;;;5052655;28;20079;-76
2023/07/07 06:42:13;;;;;;;1.38;1.30;;;;;;;;;;5052263;28;20040;-75
2023/07/07 06:44:40;;;;;;;1.42;1.33;;;;;;;;;;5064023;28;20017;-74
2023/07/07 06:47:07;;;;;;;1.70;1.60;;;;;;;;;;5072805;28;20552;-74
2023/07/07 06:49:33;;;;;;;1.10;1.10;;;;;;;;;;5075171;28;20035;-76
2023/07/07 06:51:59;;;;;;;1.40;1.40;;;;;;;;;;5053047;28;20029;-75
2023/07/07 06:54:25;;;;;;;1.40;1.30;;;;;;;;;;5052740;28;20025;-75
2023/07/07 06:56:51;;;;;;;1.02;1.02;;;;;;;;;;5068916;28;20039;-75
2023/07/07 06:59:17;;;;;;;1.42;1.33;;;;;;;;;;5075136;28;20028;-75
2023/07/07 07:01:43;;;;;;;1.20;1.20;;;;;;;;;;5072644;28;20104;-76
2023/07/07 07:04:09;;;;;;;1.25;1.13;;;;;;;;;;5072614;28;20020;-76
2023/07/07 07:06:35;;;;;;;1.00;1.00;;;;;;;;;;5064429;28;20013;-75
2023/07/07 07:09:01;;;;;;;1.20;1.20;;;;;;;;;;5069273;28;20174;-76
2023/07/07 07:11:27;;;;;;;1.02;1.02;;;;;;;;;;5072738;28;20024;-75
2023/07/07 07:13:54;;;;;;;1.73;1.63;;;;;;;;;;5071573;28;20074;-76
2023/07/07 07:16:20;;;;;;;3.67;3.38;;;;;;;;;;5072755;28;20025;-75
2023/07/07 07:18:46;;;;;;;3.63;3.33;;;;;;;;;;5068567;28;20032;-76
2023/07/07 07:21:12;;;;;;;3.38;3.10;;;;;;;;;;5071463;28;20032;-76
2023/07/07 07:23:37;;;;;;;2.85;2.65;;;32.40;39.90;;;;;;5070772;28;20035;-76
2023/07/07 07:26:04;;;;;;;2.47;2.28;;;30.40;42.50;;;;;;5072147;28;20067;-75
2023/07/07 07:28:30;;;;;;;3.00;2.72;;;28.50;45.20;;;;;;5071999;28;20016;-75
2023/07/07 07:30:56;;;;;;;2.67;2.47;;;27.00;47.80;;;;;;5072568;28;20020;-76
2023/07/07 07:33:22;;;;;;;2.67;2.42;;;25.90;49.90;;;;;;5072670;28;20027;-75
2023/07/07 07:35:48;;;;;;;2.50;2.30;;;25.00;51.70;;;;;;5064104;28;20397;-76
2023/07/07 07:38:15;;;;;;;2.80;2.60;;;24.50;53.30;;;;;;5073424;28;20024;-74
2023/07/07 07:40:41;;;;;;;3.20;2.90;;;24.10;54.50;;;;;;5071980;28;20120;-74
2023/07/07 07:43:07;;;;;;;2.58;2.38;;;23.80;55.40;;;;;;5071774;28;20467;-75
2023/07/07 07:45:33;;;;;;;3.33;2.85;;;23.60;56.00;;;;;;5072574;28;20017;-77
2023/07/07 07:47:58;;;;;;;3.28;2.97;;;23.50;56.60;;;;;;5072359;28;20094;-75
2023/07/07 07:50:26;;;;;;;3.10;2.80;;;23.40;57.00;;;;;;5074143;28;20097;-75
2023/07/07 07:52:52;;;;;;;4.10;3.03;;;23.30;57.20;;;;;;5073093;28;20397;-76
2023/07/07 07:55:17;;;;;;;4.93;4.00;;;23.20;57.50;;;;;;5072396;28;20033;-76
2023/07/07 07:57:44;;;;;;;5.20;4.00;;;23.20;57.60;;;;;;5071791;28;20064;-75
2023/07/07 08:00:10;;;;;;;4.18;3.75;;;23.20;57.70;;;;;;5070536;28;20029;-75
2023/07/07 08:02:37;;;;;;;3.50;3.20;;;23.20;57.20;;;;;;5071842;28;20094;-75
2023/07/07 08:05:03;;;;;;;3.95;3.55;;;23.20;57.10;;;;;;5067886;28;20104;-75
2023/07/07 08:07:30;;;;;;;5.25;3.85;;;23.30;57.40;;;;;;5071505;28;20093;-75
2023/07/07 08:09:55;;;;;;;4.10;3.70;;;23.30;57.30;;;;;;5073642;28;20021;-75
2023/07/07 08:12:21;;;;;;;3.90;3.50;;;23.40;57.00;;;;;;5072849;28;20021;-75
2023/07/07 08:14:47;;;;;;;4.57;3.67;;;23.50;56.40;;;;;;5072303;28;20393;-75
2023/07/07 08:17:14;;;;;;;4.72;3.88;;;23.50;55.70;;;;;;5072043;28;20031;-74
2023/07/07 08:19:41;;;;;;;5.70;3.70;;;23.60;55.50;;;;;;5071441;28;20025;-75
2023/07/07 08:22:14;;;;;;;4.15;3.45;;;23.70;55.10;;;;;;5072748;28;20505;-75
2023/07/07 08:24:43;;;;;;;4.22;3.53;;;23.80;54.90;;;;;;5073744;28;20457;-75
2023/07/07 08:27:10;;;;;;;4.00;3.50;;;23.80;54.80;;;;;;5073173;28;20056;-75
2023/07/07 08:29:38;;;;;;;4.57;3.80;;;23.90;54.60;;;;;;5072845;28;20548;-75
2023/07/07 08:32:04;;;;;;;3.60;2.97;;;24.00;54.50;;;;;;5072171;28;20090;-75
2023/07/07 08:34:30;;;;;;;3.55;3.25;;;24.00;52.00;;;;;;5072290;28;20067;-75
2023/07/07 08:36:59;;;;;;;5.78;3.58;;;24.20;50.10;;;;;;5071334;28;20024;-75
2023/07/07 08:39:27;;;;;;;4.45;3.28;;;24.30;49.20;;;;;;5072997;28;20439;-75
2023/07/07 08:42:05;;;;;;;5.45;3.63;;;24.30;48.10;;;;;;5073823;28;20028;-74
2023/07/07 08:44:34;;;;;;;3.88;3.47;;;24.40;46.40;;;;;;5076001;28;20037;-75
2023/07/07 08:47:09;;;;;;;4.05;3.65;;;24.50;46.10;;;;;;5076033;28;20103;-75
2023/07/07 08:49:56;;;;;;;3.83;3.53;;;24.60;45.60;;;;;;5075464;28;20033;-75
2023/07/07 08:52:59;;;;;;;5.00;3.95;;;24.70;44.80;;;;;;5077252;28;20024;-76
2023/07/07 08:55:46;;;;;;;3.47;3.17;;;24.80;45.20;;;;;;5075250;28;20056;-74
2023/07/07 08:58:11;;;;;;;3.42;3.13;;;25.00;44.50;;;;;;5075877;28;20020;-74
2023/07/07 09:01:11;;;;;;;3.13;2.83;;;25.10;45.20;;;;;;5075536;28;20028;-75
2023/07/07 09:03:56;;;;;;;3.85;3.47;;;25.20;45.40;;;;;;5075218;28;20054;-74
2023/07/07 09:06:46;;;;;;;3.50;3.20;;;25.40;45.40;;;;;;5073848;28;20020;-75
2023/07/07 09:09:41;;;;;;;4.32;3.88;;;25.40;45.20;;;;;;5073550;28;20037;-75
2023/07/07 09:12:20;;;;;;;3.88;3.47;;;25.50;44.30;;;;;;5066193;28;20032;-75
2023/07/07 09:14:50;;;;;;;4.13;3.72;;;25.60;44.70;;;;;;5073253;28;20107;-75
2023/07/07 09:17:24;;;;;;;9.77;4.50;;;25.60;43.70;;;;;;5074621;28;20385;-75
2023/07/07 09:19:51;;;;;;;5.13;4.63;;;25.60;43.40;;;;;;5074139;28;20024;-74
2023/07/07 09:22:29;;;;;;;3.78;3.40;;;25.60;44.00;;;;;;5074624;28;20081;-75
2023/07/07 09:25:05;;;;;;;4.03;3.72;;;25.70;44.40;;;;;;5076103;28;20032;-75
2023/07/07 09:27:38;;;;;;;5.95;4.80;;;25.80;44.60;;;;;;5074559;28;20021;-75
2023/07/07 09:30:33;;;;;;;4.82;4.30;;;25.90;43.60;;;;;;5074861;28;20013;-74
2023/07/07 09:32:59;;;;;;;5.47;4.40;;;25.80;43.70;;;;;;5073021;28;20029;-75
2023/07/07 09:35:36;;;;;;;4.60;4.18;;;25.90;44.10;;;;;;5073878;28;20330;-76
2023/07/07 09:38:22;;;;;;;4.65;4.18;;;25.90;44.20;;;;;;5061910;28;20085;-75
2023/07/07 09:41:23;;;;;;;6.72;4.78;;;25.90;43.60;;;;;;5074306;28;20452;-75
2023/07/07 09:44:03;;;;;;;5.00;4.28;;;25.90;43.50;;;;;;5074369;28;20040;-75
2023/07/07 09:46:54;;;;;;;5.40;4.40;;;26.00;43.20;;;;;;5074885;28;20450;-75
2023/07/07 09:49:32;;;;;;;4.88;4.05;;;26.00;43.30;;;;;;5074099;28;20020;-75
2023/07/07 09:52:22;;;;;;;4.40;3.80;;;26.10;43.80;;;;;;5073833;28;20025;-75
2023/07/07 09:54:48;;;;;;;4.82;4.05;;;26.30;43.70;;;;;;5074449;28;20294;-75
2023/07/07 09:57:25;;;;;;;5.63;4.22;;;26.50;43.40;;;;;;5075885;28;20029;-75
2023/07/07 09:59:53;;;;;;;6.97;4.15;;;26.50;42.50;;;;;;5073383;28;20068;-75
2023/07/07 10:02:21;;;;;;;4.70;4.28;;;26.50;42.40;;;;;;5073745;28;20473;-75
2023/07/07 10:04:54;;;;;;;4.30;3.90;;;26.60;42.80;;;;;;5074208;28;20028;-75
2023/07/07 10:07:21;;;;;;;5.32;3.90;;;26.70;43.30;;;;;;5069223;28;20036;-75
2023/07/07 10:09:47;;;;;;;4.43;3.88;;;27.00;43.40;;;;;;5055070;28;20029;-75
2023/07/07 10:12:16;;;;;;;4.40;4.00;;;27.10;42.80;;;;;;5073082;28;20103;-75
2023/07/07 10:14:43;;;;;;;4.15;3.70;;;27.20;42.70;;;;;;5072743;28;20032;-75
2023/07/07 10:17:09;;;;;;;3.90;3.60;;;27.40;43.00;;;;;;5073465;28;20123;-75
2023/07/07 10:19:45;;;;;;;3.55;3.25;;;27.60;42.90;;;;;;5073361;28;20121;-76
2023/07/07 10:22:14;;;;;;;5.28;4.35;;;27.50;41.90;;;;;;5072576;28;20036;-76
2023/07/07 10:24:41;;;;;;;6.30;5.38;;;27.50;42.70;;;;;;5073051;28;20511;-76
2023/07/07 10:27:12;;;;;;;6.85;5.35;;;27.40;42.20;;;;;;5071587;28;20029;-75
2023/07/07 10:29:40;;;;;;;6.60;5.03;;;27.20;41.40;;;;;;5072707;28;20027;-76
2023/07/07 10:32:26;;;;;;;4.80;4.30;;;27.20;41.60;;;;;;5072804;28;20024;-76
2023/07/07 10:34:56;;;;;;;4.82;4.10;;;27.40;41.80;;;;;;5072486;28;20052;-75
2023/07/07 10:37:26;;;;;;;5.47;4.50;;;27.60;42.60;;;;;;5072824;28;20021;-75
2023/07/07 10:39:54;;;;;;;6.63;4.95;;;27.70;41.70;;;;;;5072755;28;20044;-75
2023/07/07 10:42:23;;;;;;;4.97;4.47;;;27.60;41.30;;;;;;5072641;28;20093;-76
2023/07/07 10:44:50;;;;;;;5.18;4.32;;;27.70;41.70;;;;;;5072833;28;20024;-75
2023/07/07 10:47:31;;;;;;;4.60;4.13;;;27.80;42.00;;;;;;5072267;28;20123;-76
2023/07/07 10:49:59;;;;;;;4.28;3.83;;;27.90;41.80;;;;;;5073290;28;20051;-75
2023/07/07 10:52:50;;;;;;;4.45;4.07;;;28.00;41.70;;;;;;5073263;28;20090;-76
2023/07/07 10:55:28;;;;;;;6.15;5.15;;;28.10;41.40;;;;;;5070746;28;20509;-75
2023/07/07 10:58:13;;;;;;;6.07;4.95;;;28.10;41.30;;;;;;5074167;28;20036;-75
2023/07/07 11:00:58;;;;;;;5.50;4.95;;;;;;;;;;5072913;28;20038;-76
2023/07/07 11:03:33;;;;;;;5.93;4.90;;;;;;;;;;5072049;28;20036;-75
2023/07/07 11:06:03;;;;;;;5.53;4.55;;;;;;;;;;5068955;28;20131;-76
2023/07/07 11:08:35;;;;;;;7.18;5.82;;;;;;;;;;5058057;28;20100;-75
2023/07/07 11:11:09;;;;;;;5.38;4.65;;;;;;;;;;5072225;28;20032;-75
2023/07/07 11:13:35;;;;;;;5.10;4.60;;;;;;;;;;5073985;28;20520;-76
2023/07/07 11:16:07;;;;;;;5.10;4.57;;;28.20;40.20;;;;;;5072051;28;20060;-77
2023/07/07 11:18:57;;;;;;;6.53;4.93;;;28.20;40.80;;;;;;5072077;28;20461;-75
2023/07/07 11:21:46;;;;;;;5.95;4.95;;;28.50;41.10;;;;;;5060600;28;20597;-75
2023/07/07 11:24:29;;;;;;;5.38;4.82;;;28.80;40.70;;;;;;5062460;28;20047;-76
2023/07/07 11:27:01;;;;;;;4.57;4.18;;;28.70;40.30;;;;;;5064083;28;20036;-75
2023/07/07 11:29:50;;;;;;;;;;;28.90;40.80;;;;;;5072142;28;20021;-75
2023/07/07 11:32:28;;;;;;;5.57;4.63;;;29.10;40.10;;;;;;5060702;28;19908;-76
2023/07/07 11:35:20;;;;;;;4.97;4.53;;;29.10;40.20;;;;;;5084822;28;20024;-75
2023/07/07 11:38:20;;;;;;;4.82;4.32;;;29.10;39.90;;;;;;5065355;28;20066;-75
2023/07/07 11:41:00;;;;;;;5.53;4.72;;;29.30;40.60;;;;;;5070390;28;20016;-76
2023/07/07 11:43:50;;;;;;;4.80;4.40;;;29.40;39.50;;;;;;5072404;28;20118;-75
2023/07/07 11:46:34;;;;;;;4.55;4.13;;;29.50;38.80;;;;;;5069790;28;20033;-75
2023/07/07 11:49:02;;;;;;;5.63;5.13;;;29.50;39.00;;;;;;5072941;28;20036;-76
2023/07/07 11:51:43;;;;;;;5.90;5.30;;;29.30;38.10;;;;;;5071785;28;20028;-75
2023/07/07 11:54:39;;;;;;;5.53;4.93;;;29.30;38.10;;;;;;5072804;28;20035;-76
2023/07/07 11:57:33;;;;;;;5.22;4.72;;;29.50;38.20;;;;;;5068534;28;20162;-75
2023/07/07 12:00:21;;;;;;;6.18;5.47;;;29.60;37.70;;;;;;5073041;28;20479;-75
2023/07/07 12:03:20;;;;;;;7.47;6.38;;;29.70;37.10;;;;;;5071826;28;20063;-76
2023/07/07 12:05:47;;;;;;;6.25;5.65;;;29.50;35.70;;;;;;5069683;28;20029;-75
2023/07/07 12:08:20;;;;;;;6.15;5.55;;;29.40;36.10;;;;;;5070818;28;20374;-75
2023/07/07 12:10:56;;;;;;;5.95;5.10;;;29.40;36.60;;;;;;5071591;28;20029;-76
2023/07/07 12:13:33;;;;;;;6.32;5.72;;;29.70;36.30;;;;;;5071840;28;20089;-75
2023/07/07 12:16:20;;;;;;;6.13;5.28;;;29.70;36.90;;;;;;5073071;28;20033;-75
2023/07/07 12:18:54;;;;;;;6.28;5.45;;;29.80;36.30;;;;;;5076383;28;20024;-76
2023/07/07 12:21:27;;;;;;;6.40;5.75;;;29.70;35.80;;;;;;5074169;28;20064;-75
2023/07/07 12:24:01;;;;;;;7.05;6.28;;;29.60;35.90;;;;;;5075208;28;20090;-76
2023/07/07 12:26:32;;;;;;;6.13;5.00;;;29.70;36.10;;;;;;5075372;28;20103;-75
2023/07/07 12:29:00;;;;;;;5.97;5.15;;;29.70;36.40;;;;;;5075376;28;20039;-76
2023/07/07 12:31:27;;;;;;;5.80;5.20;;;29.80;37.30;;;;;;5075613;28;20024;-75
2023/07/07 12:33:53;;;;;;;5.68;5.15;;;29.90;36.70;;;;;;5075029;28;20094;-75
2023/07/07 12:36:28;;;;;;;5.85;5.35;;;29.90;36.00;;;;;;5075044;28;20024;-76
2023/07/07 12:38:57;;;;;;;5.47;4.97;;;29.90;36.20;;;;;;5074134;28;20043;-75
2023/07/07 12:41:26;;;;;;;5.30;4.80;;;30.00;35.70;;;;;;5075497;28;20034;-76
2023/07/07 12:44:02;;;;;;;5.25;4.75;;;30.10;35.00;;;;;;5077939;28;20103;-75
2023/07/07 12:46:34;;;;;;;5.50;4.95;;;30.30;35.70;;;;;;5074088;28;20542;-75
2023/07/07 12:49:16;;;;;;;5.15;4.65;;;30.30;35.80;;;;;;5076454;28;20020;-76
2023/07/07 12:51:43;;;;;;;6.90;6.15;;;30.50;36.40;;;;;;5076414;28;20516;-76
2023/07/07 12:54:28;;;;;;;6.10;5.40;;;30.40;35.30;;;;;;5077506;28;20024;-75
2023/07/07 12:57:10;;;;;;;7.50;6.68;;;30.30;35.30;;;;;;5078792;28;20166;-74
2023/07/07 12:59:38;;;;;;;5.63;5.03;;;30.20;35.00;;;;;;5081176;28;20029;-76
2023/07/07 13:02:33;;;;;;;7.32;5.63;;;30.40;35.70;;;;;;5080060;28;20020;-75
2023/07/07 13:05:20;;;;;;;6.60;5.90;;;30.70;35.90;;;;;;5077462;28;20029;-74
2023/07/07 13:07:59;;;;;;;7.63;6.53;;;30.60;34.90;;;;;;5072267;28;20036;-75
2023/07/07 13:10:40;;;;;;;7.25;6.55;;;30.50;34.60;;;;;;5076974;28;20024;-75
2023/07/07 13:13:26;;;;;;;6.20;5.60;;;30.40;34.60;;;;;;5076259;28;20024;-76
2023/07/07 13:15:54;;;;;;;8.13;6.32;;;30.60;35.40;;;;;;5075944;28;20037;-75
2023/07/07 13:18:20;;;;;;;8.45;6.75;;;30.60;34.80;;;;;;5070377;28;20083;-75
2023/07/07 13:20:49;;;;;;;7.25;6.35;;;30.50;34.20;;;;;;5072083;28;20052;-76
2023/07/07 13:23:27;;;;;;;8.88;6.57;;;30.40;34.10;;;;;;5075378;28;20063;-75